HELX  Luxor International Airport

Add Bookmark

Luxor, Egypt

Status IATA
Operational LXR
Latitude Longitude
25° 40' 15" N 32° 42' 23" E
25.671000 32.706600
Local (DST + 2) UTC (GMT + 2)
Nov 28, 2014 12:47 Nov 28, 2014 10:47
Sunrise-Sunset Local UTC
Begin Civil Twilight 05:50 03:50
Sunrise 06:15 04:15
Sunset 04:59 14:59
End Civil Twilight 05:23 15:23

Current Weather

METAR Observed VFR
HELX 281000Z 02004KT CAVOK 22/12 Q1020 NOSIG Fri, Nov 28, 2014 @ 10:00 UTC
(47 Minutes ago)
Visual Flight Rules
Wind Visibility Clouds Conditions
020° at 4 knots (7 kph) 10 km or more
  • Clear skies
  • No significant weather
Temperatures Readings Precipitation
Current Temp 22°C (72°F)
Dewpoint 12°C (54°F)
Humidity 53%
Altimeter 30.12"Hg
Sea Level Pressure 1020mb
Field Elevation 288.71'
None Recorded

Forecast Weather

TAF
TAF HELX 280500Z 2806/2912 32008KT CAVOK
From To
Fri, Nov 28, 2014 @ 06:00 UTC Sat, Nov 29, 2014 @ 12:00 UTC
Wind Visibility Conditions
320° at 8 knots (15 kph) 10 km or more
  • No significant weather

24 Hour Weather History

Loading
-

24 Hour Weather Graphs

Loading
-

CheckWX.com is intended as a tool to help pilots better visualize weather data. It is not intended as a substitute for an official weather briefing obtained from a Flight Service Station. CheckWX.com does not meet the FAA requirements for an official pre-flight weather briefing. Therefore, it's important that pilots still call and obtain an official FSS pre-flight weather briefing.